createdAt,value
2023-04-11T00:00:57.837Z,100707.09
2023-04-11T00:03:25.352Z,100687.84
2023-04-11T00:05:52.483Z,100702.13
2023-04-11T00:08:19.447Z,100703.94
2023-04-11T00:10:46.418Z,100704.75
2023-04-11T00:13:13.413Z,100706.25
2023-04-11T00:15:40.350Z,100617.94
2023-04-11T00:18:07.810Z,100700.50
2023-04-11T00:20:34.863Z,100698.75
2023-04-11T00:23:01.907Z,100692.56
2023-04-11T00:25:30.274Z,100705.16
2023-04-11T00:27:57.394Z,100698.31
2023-04-11T00:30:24.494Z,100680.00
2023-04-11T00:32:51.515Z,100700.19
2023-04-11T00:35:19.092Z,100701.66
2023-04-11T00:37:47.116Z,100691.09
2023-04-11T00:40:16.259Z,100698.13
2023-04-11T00:42:43.414Z,100677.13
2023-04-11T00:45:10.778Z,100697.63
2023-04-11T00:47:37.934Z,100695.09
2023-04-11T00:50:05.542Z,100693.25
2023-04-11T00:52:32.803Z,100700.06
2023-04-11T00:55:02.988Z,100693.13
2023-04-11T00:57:30.994Z,100645.56
2023-04-11T00:59:58.778Z,100692.38
2023-04-11T01:02:26.798Z,100667.56
2023-04-11T01:04:54.213Z,100677.94
2023-04-11T01:07:22.511Z,100687.66
2023-04-11T01:09:50.034Z,100678.91
2023-04-11T01:12:18.258Z,100692.16
2023-04-11T01:14:47.923Z,100672.88
2023-04-11T01:17:16.211Z,100693.09
2023-04-11T01:19:43.553Z,100680.09
2023-04-11T01:22:13.038Z,100680.00
2023-04-11T01:24:40.483Z,100683.72
2023-04-11T01:27:07.531Z,100647.63
2023-04-11T01:29:34.537Z,100685.38
2023-04-11T01:32:01.584Z,100682.59
2023-04-11T01:34:30.683Z,100691.88
2023-04-11T01:36:57.823Z,100695.91
2023-04-11T01:39:25.013Z,100691.59
2023-04-11T01:41:53.865Z,100683.81
2023-04-11T01:44:21.222Z,100690.97
2023-04-11T01:46:48.609Z,100678.66
2023-04-11T01:49:17.815Z,100675.88
2023-04-11T01:51:45.940Z,100666.81
2023-04-11T01:54:13.064Z,100683.41
2023-04-11T01:56:40.056Z,100690.41
2023-04-11T01:59:07.069Z,100683.59
2023-04-11T02:01:34.872Z,100678.34
2023-04-11T02:04:02.154Z,100672.81
2023-04-11T02:06:29.304Z,100663.03
2023-04-11T02:08:56.365Z,100679.59
2023-04-11T02:11:23.476Z,100682.81
2023-04-11T02:13:51.878Z,100629.09
2023-04-11T02:16:55.789Z,100661.06
2023-04-11T02:19:26.333Z,100671.25
2023-04-11T02:21:53.383Z,100679.06
2023-04-11T02:24:20.554Z,100664.06
2023-04-11T02:26:47.554Z,100662.03
2023-04-11T02:29:14.481Z,100679.47
2023-04-11T02:31:41.666Z,100667.22
2023-04-11T02:34:09.459Z,100656.78
2023-04-11T02:36:37.205Z,100650.59
2023-04-11T02:39:04.171Z,100675.53
2023-04-11T02:41:31.099Z,100678.19
2023-04-11T02:43:58.037Z,100673.72
2023-04-11T02:46:25.058Z,100678.91
2023-04-11T02:48:52.143Z,100671.13
2023-04-11T02:51:19.109Z,100678.19
2023-04-11T02:53:46.113Z,100672.22
2023-04-11T02:56:19.181Z,100643.97
2023-04-11T02:58:49.636Z,100677.38
2023-04-11T03:01:21.740Z,100680.88
2023-04-11T03:03:48.889Z,100676.84
2023-04-11T03:06:16.345Z,100676.13
2023-04-11T03:08:44.596Z,100679.72
2023-04-11T03:11:12.173Z,100676.22
2023-04-11T03:13:39.614Z,100678.88
2023-04-11T03:16:08.192Z,100669.53
2023-04-11T03:18:35.727Z,100673.72
2023-04-11T03:21:11.003Z,100672.00
2023-04-11T03:23:41.487Z,100678.44
2023-04-11T03:26:08.636Z,100678.78
2023-04-11T03:28:36.051Z,100671.75
2023-04-11T03:31:03.187Z,100686.66
2023-04-11T03:33:30.465Z,100683.31
2023-04-11T03:35:57.461Z,100681.50
2023-04-11T03:38:25.496Z,100672.56
2023-04-11T03:40:52.910Z,100681.44
2023-04-11T03:43:25.401Z,100655.28
2023-04-11T03:45:53.565Z,100666.69
2023-04-11T03:48:43.185Z,100669.31
2023-04-11T03:51:10.291Z,100633.84
2023-04-11T03:53:43.898Z,100658.44
2023-04-11T03:56:39.931Z,100672.53
2023-04-11T03:59:14.349Z,100675.88
2023-04-11T04:01:51.379Z,100674.94
2023-04-11T04:04:18.516Z,100669.94
2023-04-11T04:06:50.161Z,100646.06
2023-04-11T04:09:18.395Z,100667.94
2023-04-11T04:11:49.608Z,100670.63
2023-04-11T04:14:19.576Z,100625.84
2023-04-11T04:16:46.655Z,100670.03
2023-04-11T04:19:15.734Z,100664.78
2023-04-11T04:21:46.002Z,100664.63
2023-04-11T04:24:15.997Z,100669.81
2023-04-11T04:27:00.969Z,100671.53
2023-04-11T04:29:38.547Z,100667.19
2023-04-11T04:32:11.380Z,100680.81
2023-04-11T04:34:49.429Z,100667.84
2023-04-11T04:37:25.074Z,100645.78
2023-04-11T04:40:08.017Z,100670.66
2023-04-11T04:42:43.998Z,100670.09
2023-04-11T04:45:11.557Z,100652.88
2023-04-11T04:47:38.960Z,100654.94
2023-04-11T04:50:07.138Z,100655.03
2023-04-11T04:52:34.598Z,100669.28
2023-04-11T04:55:02.238Z,100663.41
2023-04-11T04:57:32.157Z,100646.28
2023-04-11T05:00:06.553Z,100658.84
2023-04-11T05:02:34.543Z,100652.78
2023-04-11T05:05:04.403Z,100662.31
2023-04-11T05:07:33.258Z,100656.34
2023-04-11T05:10:00.516Z,100645.19
2023-04-11T05:12:30.540Z,100647.94
2023-04-11T05:15:03.390Z,100644.47
2023-04-11T05:17:32.052Z,100641.16
2023-04-11T05:19:59.305Z,100644.94
2023-04-11T05:22:27.841Z,100640.44
2023-04-11T05:24:57.196Z,100647.59
2023-04-11T05:27:24.212Z,100628.53
2023-04-11T05:29:51.600Z,100643.38
2023-04-11T05:32:19.358Z,100639.28
2023-04-11T05:34:59.010Z,100635.38
2023-04-11T05:37:49.379Z,100639.94
2023-04-11T05:40:16.446Z,100632.09
2023-04-11T05:42:43.438Z,100611.13
2023-04-11T05:45:10.767Z,100634.19
2023-04-11T05:47:37.835Z,100629.28
2023-04-11T05:50:05.526Z,100624.13
2023-04-11T05:52:32.539Z,100618.94
2023-04-11T05:54:59.928Z,100630.41
2023-04-11T05:57:26.880Z,100628.88
2023-04-11T05:59:53.860Z,100577.31
2023-04-11T06:02:21.291Z,100632.16
2023-04-11T06:04:48.561Z,100628.06
2023-04-11T06:07:16.017Z,100570.50
2023-04-11T06:09:43.086Z,100621.22
2023-04-11T06:12:10.677Z,100611.34
2023-04-11T06:14:40.155Z,100599.69
2023-04-11T06:17:07.474Z,100609.38
2023-04-11T06:19:34.463Z,100601.66
2023-04-11T06:22:01.679Z,100608.16
2023-04-11T06:24:40.675Z,100596.78
2023-04-11T06:27:10.246Z,100612.47
2023-04-11T06:29:41.733Z,100605.63
2023-04-11T06:32:08.740Z,100598.75
2023-04-11T06:34:35.790Z,100601.47
2023-04-11T06:37:02.691Z,100601.47
2023-04-11T06:39:30.675Z,100614.56
2023-04-11T06:41:57.688Z,100609.41
2023-04-11T06:44:26.107Z,100611.28
2023-04-11T06:46:53.244Z,100601.69
2023-04-11T06:49:20.839Z,100607.84
2023-04-11T06:51:50.112Z,100601.72
2023-04-11T06:54:17.923Z,100603.38
2023-04-11T06:56:45.097Z,100596.81
2023-04-11T06:59:12.039Z,100601.59
2023-04-11T07:01:39.901Z,100593.28
2023-04-11T07:04:07.485Z,100608.94
2023-04-11T07:06:36.017Z,100604.19
2023-04-11T07:09:04.388Z,100579.22
2023-04-11T07:11:31.828Z,100596.13
2023-04-11T07:14:02.511Z,100595.88
2023-04-11T07:16:29.492Z,100592.06
2023-04-11T07:18:56.516Z,100578.56
2023-04-11T07:21:23.677Z,100596.72
2023-04-11T07:23:50.677Z,100591.78
2023-04-11T07:26:17.975Z,100579.53
2023-04-11T07:28:45.471Z,100570.72
2023-04-11T07:31:13.932Z,100578.59
2023-04-11T07:33:43.309Z,100587.84
2023-04-11T07:36:11.281Z,100574.16
2023-04-11T07:38:38.394Z,100581.88
2023-04-11T07:41:05.983Z,100556.06
2023-04-11T07:43:33.513Z,100574.09
2023-04-11T07:46:00.873Z,100576.31
2023-04-11T07:48:28.390Z,100573.13
2023-04-11T07:50:55.593Z,100567.47
2023-04-11T07:53:22.866Z,100556.59
2023-04-11T07:55:49.851Z,100559.16
2023-04-11T07:58:16.902Z,100550.59
2023-04-11T08:00:43.944Z,100559.22
2023-04-11T08:03:13.476Z,100555.19
2023-04-11T08:05:40.678Z,100557.44
2023-04-11T08:08:07.900Z,100549.81
2023-04-11T08:10:34.950Z,100545.81
2023-04-11T08:13:02.054Z,100549.72
2023-04-11T08:15:29.030Z,100537.38
2023-04-11T08:17:56.421Z,100541.50
2023-04-11T08:20:26.494Z,100509.72
2023-04-11T08:22:53.480Z,100549.56
2023-04-11T08:25:25.142Z,100545.03
2023-04-11T08:27:52.617Z,100547.06
2023-04-11T08:30:20.703Z,100534.72
2023-04-11T08:32:47.770Z,100526.44
2023-04-11T08:35:14.800Z,100530.00
2023-04-11T08:37:41.820Z,100517.56
2023-04-11T08:40:09.320Z,100520.09
2023-04-11T08:42:36.621Z,100519.31
2023-04-11T08:45:08.546Z,100520.31
2023-04-11T08:47:37.061Z,100485.16
2023-04-11T08:50:08.191Z,100529.41
2023-04-11T08:52:37.957Z,100516.13
2023-04-11T08:55:05.280Z,100503.28
2023-04-11T08:57:33.166Z,100511.19
2023-04-11T09:00:14.903Z,100512.56
2023-04-11T09:03:02.423Z,100499.75
2023-04-11T09:05:34.780Z,100484.00
2023-04-11T09:08:07.064Z,100486.66
2023-04-11T09:10:34.501Z,100480.47
2023-04-11T09:13:02.785Z,100490.94
2023-04-11T09:15:31.737Z,100488.00
2023-04-11T09:18:00.850Z,100448.19
2023-04-11T09:20:31.452Z,100475.06
2023-04-11T09:23:01.658Z,100469.66
2023-04-11T09:25:28.794Z,100468.53
2023-04-11T09:28:10.453Z,100469.94
2023-04-11T09:30:37.526Z,100469.34
2023-04-11T09:33:26.191Z,100452.97
2023-04-11T09:35:55.641Z,100460.28
2023-04-11T09:38:33.474Z,100453.09
2023-04-11T09:41:02.385Z,100450.47
2023-04-11T09:43:55.689Z,100443.84
2023-04-11T09:46:23.279Z,100452.41
2023-04-11T09:48:52.888Z,100438.00
2023-04-11T09:51:35.262Z,100444.88
2023-04-11T09:54:04.375Z,100443.09
2023-04-11T09:56:34.359Z,100432.19
2023-04-11T09:59:03.864Z,100435.59
2023-04-11T10:01:31.140Z,100444.75
2023-04-11T10:03:58.587Z,100431.31
2023-04-11T10:06:38.886Z,100422.47
2023-04-11T10:09:11.868Z,100429.16
2023-04-11T10:11:43.607Z,100389.50
2023-04-11T10:14:39.872Z,100414.34
2023-04-11T10:17:24.311Z,100408.56
2023-04-11T10:19:56.664Z,100403.84
2023-04-11T10:22:43.319Z,100399.56
2023-04-11T10:25:21.715Z,100399.03
2023-04-11T10:27:50.822Z,100385.63
2023-04-11T10:30:17.903Z,100397.44
2023-04-11T10:33:13.812Z,100385.72
2023-04-11T10:36:02.324Z,100387.75
2023-04-11T10:38:42.032Z,100388.25
2023-04-11T10:41:33.381Z,100388.59
2023-04-11T10:44:21.522Z,100373.41
2023-04-11T10:46:55.390Z,100378.25
2023-04-11T10:49:40.797Z,100359.44
2023-04-11T10:52:19.195Z,100358.13
2023-04-11T10:54:46.884Z,100369.56
2023-04-11T10:57:14.587Z,100358.41
2023-04-11T10:59:44.542Z,100367.09
2023-04-11T11:02:12.118Z,100359.09
2023-04-11T11:04:40.489Z,100351.88
2023-04-11T11:07:12.465Z,100349.97
2023-04-11T11:09:39.735Z,100347.41
2023-04-11T11:12:13.238Z,100344.97
2023-04-11T11:14:42.169Z,100344.44
2023-04-11T11:17:11.056Z,100304.59
2023-04-11T11:19:38.092Z,100348.13
2023-04-11T11:22:26.061Z,100342.81
2023-04-11T11:24:53.488Z,100335.19
2023-04-11T11:27:22.912Z,100319.53
2023-04-11T11:29:50.421Z,100325.47
2023-04-11T11:32:28.728Z,100315.66
2023-04-11T11:34:57.695Z,100319.88
2023-04-11T11:37:25.168Z,100308.44
2023-04-11T11:39:52.668Z,100311.00
2023-04-11T11:42:19.844Z,100310.09
2023-04-11T11:44:46.879Z,100306.69
2023-04-11T11:47:17.148Z,100299.25
2023-04-11T11:49:51.311Z,100305.41
2023-04-11T11:52:36.598Z,100307.19
2023-04-11T11:57:54.198Z,100296.13
2023-04-11T12:00:26.070Z,100292.81
2023-04-11T12:02:55.103Z,100285.03
2023-04-11T12:05:25.208Z,100287.59
2023-04-11T12:07:55.752Z,100282.38
2023-04-11T12:10:22.880Z,100244.84
2023-04-11T12:12:53.142Z,100288.44
2023-04-11T12:15:23.179Z,100281.44
2023-04-11T12:17:55.203Z,100270.75
2023-04-11T12:20:24.002Z,100265.56
2023-04-11T12:22:52.245Z,100249.94
2023-04-11T12:25:22.090Z,100275.31
2023-04-11T12:27:49.302Z,100269.22
2023-04-11T12:30:16.376Z,100265.94
2023-04-11T12:32:44.350Z,100251.22
2023-04-11T12:35:12.665Z,100251.16
2023-04-11T12:37:39.684Z,100238.94
2023-04-11T12:40:11.052Z,100252.91
2023-04-11T12:42:56.272Z,100238.00
2023-04-11T12:45:24.138Z,100244.13
2023-04-11T12:47:51.360Z,100249.53
2023-04-11T12:50:18.582Z,100249.63
2023-04-11T12:52:45.820Z,100214.69
2023-04-11T12:55:13.678Z,100245.16
2023-04-11T12:57:41.649Z,100248.66
2023-04-11T13:00:11.395Z,100237.22
2023-04-11T13:02:44.060Z,100236.25
2023-04-11T13:05:14.565Z,100212.69
2023-04-11T13:07:42.826Z,100235.28
2023-04-11T13:10:10.538Z,100214.38
2023-04-11T13:12:41.598Z,100223.22
2023-04-11T13:15:12.098Z,100232.16
2023-04-11T13:17:39.248Z,100220.88
2023-04-11T13:20:10.700Z,100206.09
2023-04-11T13:22:42.031Z,100206.16
2023-04-11T13:25:10.485Z,100216.69
2023-04-11T13:27:39.544Z,100217.53
2023-04-11T13:30:07.896Z,100199.19
2023-04-11T13:32:34.954Z,100207.81
2023-04-11T13:35:02.331Z,100202.56
2023-04-11T13:37:30.668Z,100203.47
2023-04-11T13:39:57.669Z,100203.47
2023-04-11T13:42:24.657Z,100156.41
2023-04-11T13:44:51.678Z,100181.81
2023-04-11T13:47:18.654Z,100201.06
2023-04-11T13:49:45.737Z,100205.47
2023-04-11T13:52:12.680Z,100209.84
2023-04-11T13:54:39.699Z,100205.50
2023-04-11T13:57:09.617Z,100187.16
2023-04-11T13:59:36.757Z,100205.50
2023-04-11T14:02:04.033Z,100209.03
2023-04-11T14:04:31.473Z,100199.44
2023-04-11T14:06:58.601Z,100208.16
2023-04-11T14:09:25.686Z,100202.91
2023-04-11T14:11:52.762Z,100188.06
2023-04-11T14:14:19.733Z,100179.31
2023-04-11T14:16:46.750Z,100198.47
2023-04-11T14:19:13.705Z,100194.16
2023-04-11T14:21:40.812Z,100188.97
2023-04-11T14:24:09.480Z,100189.06
2023-04-11T14:26:36.494Z,100184.72
2023-04-11T14:29:03.974Z,100173.38
2023-04-11T14:31:31.068Z,100189.06
2023-04-11T14:33:58.177Z,100189.06
2023-04-11T14:36:25.188Z,100185.56
2023-04-11T14:38:52.215Z,100182.91
2023-04-11T14:41:19.484Z,100180.28
2023-04-11T14:43:46.521Z,100170.69
2023-04-11T14:46:13.528Z,100176.72
2023-04-11T14:48:40.636Z,100161.88
2023-04-11T14:51:07.834Z,100173.19
2023-04-11T14:53:34.828Z,100163.59
2023-04-11T14:56:06.229Z,100168.88
2023-04-11T14:58:33.813Z,100165.41
2023-04-11T15:01:00.910Z,100159.31
2023-04-11T15:03:28.167Z,100170.69
2023-04-11T15:05:55.574Z,100166.34
2023-04-11T15:08:22.614Z,100161.09
2023-04-11T15:10:54.167Z,100154.09
2023-04-11T15:13:24.860Z,100161.94
2023-04-11T15:15:52.070Z,100167.19
2023-04-11T15:18:29.046Z,100115.75
2023-04-11T15:20:56.775Z,100165.38
2023-04-11T15:23:24.112Z,100159.31
2023-04-11T15:25:59.137Z,100158.41
2023-04-11T15:28:28.004Z,100154.94
2023-04-11T15:30:55.678Z,100163.69
2023-04-11T15:33:24.434Z,100163.72
2023-04-11T15:35:57.744Z,100147.19
2023-04-11T15:38:25.862Z,100143.69
2023-04-11T15:40:54.528Z,100171.66
2023-04-11T15:43:22.974Z,100162.97
2023-04-11T15:45:52.469Z,100162.13
2023-04-11T15:48:19.706Z,100129.03
2023-04-11T15:50:46.800Z,100135.13
2023-04-11T15:53:13.769Z,100135.13
2023-04-11T15:55:44.216Z,100161.28
2023-04-11T15:58:11.426Z,100153.44
2023-04-11T16:00:39.999Z,100166.56
2023-04-11T16:03:08.579Z,100170.06
2023-04-11T16:05:38.446Z,100172.69
2023-04-11T16:08:09.344Z,100168.31
2023-04-11T16:10:36.489Z,100174.44
2023-04-11T16:13:03.532Z,100163.97
2023-04-11T16:15:30.576Z,100171.84
2023-04-11T16:17:57.752Z,100159.63
2023-04-11T16:20:24.826Z,100170.09
2023-04-11T16:22:51.892Z,100176.22
2023-04-11T16:25:21.603Z,100177.94
2023-04-11T16:27:50.041Z,100172.72
2023-04-11T16:30:17.246Z,100170.09
2023-04-11T16:32:44.742Z,100174.41
2023-04-11T16:35:12.124Z,100151.75
2023-04-11T16:37:39.256Z,100176.16
2023-04-11T16:40:11.383Z,100121.19
2023-04-11T16:42:40.115Z,100160.44
2023-04-11T16:45:09.047Z,100176.97
2023-04-11T16:47:36.376Z,100182.22
2023-04-11T16:50:04.252Z,100172.59
2023-04-11T16:52:31.971Z,100177.81
2023-04-11T16:54:58.927Z,100169.94
2023-04-11T16:57:25.948Z,100179.53
2023-04-11T16:59:53.276Z,100172.50
2023-04-11T17:02:20.499Z,100142.78
2023-04-11T17:04:47.564Z,100189.91
2023-04-11T17:07:14.625Z,100193.41
2023-04-11T17:09:41.630Z,100163.63
2023-04-11T17:12:08.729Z,100192.44
2023-04-11T17:14:36.612Z,100191.56
2023-04-11T17:17:03.973Z,100192.44
2023-04-11T17:19:31.708Z,100183.63
2023-04-11T17:21:58.741Z,100197.53
2023-04-11T17:24:25.888Z,100201.00
2023-04-11T17:26:53.279Z,100194.81
2023-04-11T17:29:20.413Z,100172.09
2023-04-11T17:31:47.458Z,100200.91
2023-04-11T17:34:14.443Z,100180.84
2023-04-11T17:36:43.072Z,100201.78
2023-04-11T17:39:17.147Z,100206.13
2023-04-11T17:41:48.050Z,100199.97
2023-04-11T17:44:15.115Z,100202.59
2023-04-11T17:46:42.139Z,100205.22
2023-04-11T17:49:09.111Z,100201.69
2023-04-11T17:51:40.802Z,100194.66
2023-04-11T17:54:09.978Z,100199.88
2023-04-11T17:56:37.209Z,100196.41
2023-04-11T17:59:04.173Z,100198.03
2023-04-11T18:01:32.666Z,100184.06
2023-04-11T18:04:01.672Z,100205.00
2023-04-11T18:06:29.821Z,100197.09
2023-04-11T18:08:56.925Z,100204.06
2023-04-11T18:11:24.024Z,100176.06
2023-04-11T18:13:51.119Z,100193.53
2023-04-11T18:16:18.624Z,100167.31
2023-04-11T18:18:47.201Z,100202.22
2023-04-11T18:21:16.074Z,100206.50
2023-04-11T18:23:43.152Z,100191.59
2023-04-11T18:26:10.161Z,100202.03
2023-04-11T18:28:37.189Z,100201.22
2023-04-11T18:31:04.754Z,100200.28
2023-04-11T18:33:32.116Z,100197.66
2023-04-11T18:35:59.367Z,100206.34
2023-04-11T18:38:27.525Z,100204.63
2023-04-11T18:40:55.718Z,100206.34
2023-04-11T18:43:24.160Z,100196.72
2023-04-11T18:45:51.405Z,100183.47
2023-04-11T18:48:18.499Z,100194.88
2023-04-11T18:50:48.770Z,100199.16
2023-04-11T18:53:16.421Z,100178.19
2023-04-11T18:55:43.707Z,100144.00
2023-04-11T18:58:13.304Z,100194.75
2023-04-11T19:00:42.712Z,100191.13
2023-04-11T19:03:15.425Z,100195.44
2023-04-11T19:05:44.131Z,100190.13
2023-04-11T19:08:11.350Z,100190.09
2023-04-11T19:10:38.431Z,100196.97
2023-04-11T19:13:06.354Z,100166.38
2023-04-11T19:15:33.431Z,100176.75
2023-04-11T19:18:00.855Z,100181.06
2023-04-11T19:20:28.328Z,100194.09
2023-04-11T19:22:55.423Z,100189.75
2023-04-11T19:25:22.403Z,100137.16
2023-04-11T19:27:49.836Z,100185.25
2023-04-11T19:30:17.066Z,100178.97
2023-04-11T19:32:46.105Z,100184.97
2023-04-11T19:35:13.589Z,100183.22
2023-04-11T19:37:41.216Z,100182.34
2023-04-11T19:40:11.070Z,100162.94
2023-04-11T19:42:40.349Z,100188.22
2023-04-11T19:45:09.940Z,100168.06
2023-04-11T19:47:37.230Z,100182.78
2023-04-11T19:50:04.470Z,100189.72
2023-04-11T19:52:31.510Z,100192.22
2023-04-11T19:54:58.437Z,100193.03
2023-04-11T19:57:27.259Z,100189.41
2023-04-11T19:59:54.190Z,100181.50
2023-04-11T20:02:21.381Z,100181.47
2023-04-11T20:04:49.621Z,100176.19
2023-04-11T20:07:16.727Z,100170.78
2023-04-11T20:09:43.804Z,100189.16
2023-04-11T20:12:10.910Z,100191.75
2023-04-11T20:14:38.389Z,100195.13
2023-04-11T20:17:08.626Z,100177.66
2023-04-11T20:19:37.817Z,100189.81
2023-04-11T20:22:05.070Z,100202.78
2023-04-11T20:24:32.091Z,100182.66
2023-04-11T20:26:59.029Z,100193.91
2023-04-11T20:29:30.936Z,100186.94
2023-04-11T20:31:58.476Z,100186.00
2023-04-11T20:34:25.634Z,100192.06
2023-04-11T20:36:52.693Z,100190.19
2023-04-11T20:39:19.677Z,100195.28
2023-04-11T20:41:46.666Z,100196.84
2023-04-11T20:44:18.002Z,100196.09
2023-04-11T20:46:46.260Z,100195.13
2023-04-11T20:49:13.240Z,100189.91
2023-04-11T20:51:40.246Z,100208.97
2023-04-11T20:54:07.190Z,100199.44
2023-04-11T20:56:35.502Z,100188.75
2023-04-11T20:59:02.981Z,100166.84
2023-04-11T21:01:34.053Z,100160.56
2023-04-11T21:04:02.869Z,100199.81
2023-04-11T21:06:31.849Z,100196.28
2023-04-11T21:09:00.485Z,100200.53
2023-04-11T21:11:27.509Z,100203.97
2023-04-11T21:13:55.070Z,100194.31
2023-04-11T21:16:22.310Z,100212.50
2023-04-11T21:18:49.491Z,100205.53
2023-04-11T21:21:16.497Z,100191.31
2023-04-11T21:23:43.778Z,100214.78
2023-04-11T21:26:11.847Z,100207.81
2023-04-11T21:28:38.939Z,100192.88
2023-04-11T21:31:06.406Z,100215.53
2023-04-11T21:33:33.478Z,100209.50
2023-04-11T21:36:00.729Z,100210.34
2023-04-11T21:38:27.946Z,100214.50
2023-04-11T21:40:56.999Z,100173.06
2023-04-11T21:43:24.558Z,100200.97
2023-04-11T21:45:51.490Z,100214.81
2023-04-11T21:48:18.492Z,100191.22
2023-04-11T21:50:46.209Z,100216.56
2023-04-11T21:53:14.216Z,100189.50
2023-04-11T21:55:46.853Z,100206.38
2023-04-11T21:58:27.926Z,100201.91
2023-04-11T22:00:56.392Z,100212.47
2023-04-11T22:03:23.946Z,100212.47
2023-04-11T22:05:52.438Z,100205.28
2023-04-11T22:08:20.393Z,100185.88
2023-04-11T22:10:48.329Z,100195.53
2023-04-11T22:13:19.767Z,100192.91
2023-04-11T22:15:48.978Z,100196.34
2023-04-11T22:18:16.114Z,100143.81
2023-04-11T22:20:44.309Z,100189.31
2023-04-11T22:23:13.129Z,100192.88
2023-04-11T22:25:44.268Z,100201.59
2023-04-11T22:28:18.622Z,100202.44
2023-04-11T22:30:48.516Z,100177.03
2023-04-11T22:33:16.083Z,100177.88
2023-04-11T22:35:47.779Z,100177.75
2023-04-11T22:38:16.003Z,100202.09
2023-04-11T22:40:43.371Z,100201.22
2023-04-11T22:43:10.788Z,100174.78
2023-04-11T22:45:37.902Z,100208.09
2023-04-11T22:48:06.262Z,100201.13
2023-04-11T22:50:37.388Z,100161.72
2023-04-11T22:53:04.654Z,100191.50
2023-04-11T22:55:36.864Z,100145.75
2023-04-11T22:58:04.193Z,100199.00
2023-04-11T23:00:38.261Z,100175.28
2023-04-11T23:03:07.550Z,100184.88
2023-04-11T23:05:39.645Z,100190.09
2023-04-11T23:08:08.088Z,100189.19
2023-04-11T23:10:35.546Z,100192.66
2023-04-11T23:13:03.716Z,100190.09
2023-04-11T23:15:31.813Z,100183.06
2023-04-11T23:17:59.104Z,100177.88
2023-04-11T23:20:26.187Z,100189.22
2023-04-11T23:22:53.292Z,100180.53
2023-04-11T23:25:20.302Z,100180.47
2023-04-11T23:27:47.582Z,100185.59
2023-04-11T23:30:17.806Z,100187.25
2023-04-11T23:32:44.897Z,100186.38
2023-04-11T23:35:11.989Z,100185.50
2023-04-11T23:37:39.023Z,100191.44
2023-04-11T23:40:11.116Z,100190.56
2023-04-11T23:42:39.496Z,100123.97
2023-04-11T23:45:07.577Z,100193.84
2023-04-11T23:47:35.372Z,100186.78
2023-04-11T23:50:02.971Z,100165.56
2023-04-11T23:52:31.219Z,100189.03
2023-04-11T23:54:58.574Z,100181.03
2023-04-11T23:57:25.673Z,100190.66
2023-04-11T23:59:52.704Z,100170.59
